PWSweather.com
Personal Weather Stations
Station Observations
KAZSIERR7
Canyon De Flores, Sierra Vista, AZ 85650

Canyon De FloresSierra Vista, AZ 85650

Lat: 31.5, Lon: -110.26

Elevation: 4645

Station Type: LaCrosse WS-3610 & Boltek Lightning Detector

http://www.lightningring.com/weather/

High Low Average
Temperature 89.5°F31.9°F 66.7°F19.3°F 74.6°F23.7°F
Dew Point 61.7°F16.5°F 53.9°F12.2°F 58.9°F14.9°F
Winds 8.1 mph NNW13.0 mph NNW Calm Calm 2.4 mph 3.9 mph
Wind Gusts 27.9 mph44.9 mph -- 7.6 mph12.2 mph
Humidity 78% 32% 60%
Pressure 30.24 in1024.00 in 30.12 in1020.00 in -
Precipitation 0.00 in0.00 in - -
Hour Temp Dew Point Humidity Winds Wind Gusts Pressure Precip Precip Rate Daily Precip Total
12:04 AM 69.3°F20.7°C 61.2°F16.2°C 76% Calm Calm -- 30.17 in1021.7 mb 0.00 in0.0 mm 0.00 in0.0 mm 0.00 in0.0 mm
12:09 AM 69.3°F20.7°C 61.2°F16.2°C 76% 2.5 mph SE4.0 kmh SE 3.3 mph5.3 kmh 30.17 in1021.7 mb 0.00 in0.0 mm 0.00 in0.0 mm 0.00 in0.0 mm
12:15 AM 69.1°F20.6°C 60.6°F15.9°C 75% 2.0 mph SSE3.2 kmh SSE 3.3 mph5.3 kmh 30.17 in1021.7 mb 0.00 in0.0 mm 0.00 in0.0 mm 0.00 in0.0 mm
12:20 AM 69.1°F20.6°C 60.6°F15.9°C 75% 3.3 mph SSE5.3 kmh SSE 3.3 mph5.3 kmh 30.17 in1021.7 mb 0.00 in0.0 mm 0.00 in0.0 mm 0.00 in0.0 mm
12:25 AM 69.1°F20.6°C 60.6°F15.9°C 75% 2.2 mph SW3.5 kmh SW 3.3 mph5.3 kmh 30.17 in1021.7 mb 0.00 in0.0 mm 0.00 in0.0 mm 0.00 in0.0 mm
12:30 AM 69.1°F20.6°C 60.6°F15.9°C 75% Calm Calm 3.3 mph5.3 kmh 30.17 in1021.7 mb 0.00 in0.0 mm 0.00 in0.0 mm 0.00 in0.0 mm
12:36 AM 69.1°F20.6°C 60.6°F15.9°C 75% Calm Calm -- 30.17 in1021.7 mb 0.00 in0.0 mm 0.00 in0.0 mm 0.00 in0.0 mm
12:41 AM 68.9°F20.5°C 60.6°F15.9°C 75% Calm Calm -- 30.16 in1021.3 mb 0.00 in0.0 mm 0.00 in0.0 mm 0.00 in0.0 mm
12:46 AM 68.9°F20.5°C 60.6°F15.9°C 75% Calm Calm -- 30.16 in1021.3 mb 0.00 in0.0 mm 0.00 in0.0 mm 0.00 in0.0 mm
12:51 AM 68.9°F20.5°C 60.6°F15.9°C 74% Calm Calm -- 30.15 in1021.0 mb 0.00 in0.0 mm 0.00 in0.0 mm 0.00 in0.0 mm
12:57 AM 68.7°F20.4°C 60.1°F15.6°C 74% Calm Calm -- 30.15 in1021.0 mb 0.00 in0.0 mm 0.00 in0.0 mm 0.00 in0.0 mm
01:02 AM 68.7°F20.4°C 60.1°F15.6°C 74% Calm Calm -- 30.15 in1021.0 mb 0.00 in0.0 mm 0.00 in0.0 mm 0.00 in0.0 mm
01:07 AM 68.9°F20.5°C 60.1°F15.6°C 74% Calm Calm -- 30.15 in1021.0 mb 0.00 in0.0 mm 0.00 in0.0 mm 0.00 in0.0 mm
01:12 AM 69.1°F20.6°C 60.3°F15.7°C 74% Calm Calm -- 30.14 in1020.7 mb 0.00 in0.0 mm 0.00 in0.0 mm 0.00 in0.0 mm
01:17 AM 69.1°F20.6°C 59.9°F15.5°C 73% 0.4 mph ESE0.6 kmh ESE 0.4 mph0.6 kmh 30.14 in1020.7 mb 0.00 in0.0 mm 0.00 in0.0 mm 0.00 in0.0 mm
01:23 AM 69.1°F20.6°C 59.9°F15.5°C 73% Calm Calm 0.4 mph0.6 kmh 30.14 in1020.7 mb 0.00 in0.0 mm 0.00 in0.0 mm 0.00 in0.0 mm
01:28 AM 68.9°F20.5°C 60.1°F15.6°C 74% Calm Calm -- 30.14 in1020.7 mb 0.00 in0.0 mm 0.00 in0.0 mm 0.00 in0.0 mm
01:33 AM 68.7°F20.4°C 60.1°F15.6°C 74% 4.0 mph ENE6.4 kmh ENE 4.0 mph6.4 kmh 30.15 in1021.0 mb 0.00 in0.0 mm 0.00 in0.0 mm 0.00 in0.0 mm
01:39 AM 68.7°F20.4°C 60.1°F15.6°C 75% Calm Calm 4.0 mph6.4 kmh 30.15 in1021.0 mb 0.00 in0.0 mm 0.00 in0.0 mm 0.00 in0.0 mm
01:44 AM 68.2°F20.1°C 59.9°F15.5°C 75% Calm Calm -- 30.15 in1021.0 mb 0.00 in0.0 mm 0.00 in0.0 mm 0.00 in0.0 mm
01:49 AM 68.2°F20.1°C 59.9°F15.5°C 75% Calm Calm -- 30.15 in1021.0 mb 0.00 in0.0 mm 0.00 in0.0 mm 0.00 in0.0 mm
01:54 AM 67.8°F19.9°C 59.9°F15.5°C 76% Calm Calm -- 30.15 in1021.0 mb 0.00 in0.0 mm 0.00 in0.0 mm 0.00 in0.0 mm
01:59 AM 67.6°F19.8°C 59.7°F15.4°C 76% Calm Calm -- 30.15 in1021.0 mb 0.00 in0.0 mm 0.00 in0.0 mm 0.00 in0.0 mm
02:05 AM 67.3°F19.6°C 59.4°F15.2°C 77% Calm Calm -- 30.15 in1021.0 mb 0.00 in0.0 mm 0.00 in0.0 mm 0.00 in0.0 mm
02:10 AM 67.3°F19.6°C 59.4°F15.2°C 77% Calm Calm -- 30.15 in1021.0 mb 0.00 in0.0 mm 0.00 in0.0 mm 0.00 in0.0 mm
02:15 AM 67.1°F19.5°C 59.5°F15.3°C 77% Calm Calm -- 30.15 in1021.0 mb 0.00 in0.0 mm 0.00 in0.0 mm 0.00 in0.0 mm
02:20 AM 67.5°F19.7°C 59.9°F15.5°C 77% Calm Calm -- 30.15 in1021.0 mb 0.00 in0.0 mm 0.00 in0.0 mm 0.00 in0.0 mm
02:26 AM 67.6°F19.8°C 60.1°F15.6°C 76% Calm Calm -- 30.15 in1021.0 mb 0.00 in0.0 mm 0.00 in0.0 mm 0.00 in0.0 mm
02:31 AM 67.6°F19.8°C 60.1°F15.6°C 77% Calm Calm -- 30.16 in1021.3 mb 0.00 in0.0 mm 0.00 in0.0 mm 0.00 in0.0 mm
02:36 AM 67.6°F19.8°C 60.1°F15.6°C 77% Calm Calm -- 30.16 in1021.3 mb 0.00 in0.0 mm 0.00 in0.0 mm 0.00 in0.0 mm
02:41 AM 67.6°F19.8°C 60.1°F15.6°C 77% Calm Calm -- 30.16 in1021.3 mb 0.00 in0.0 mm 0.00 in0.0 mm 0.00 in0.0 mm
02:47 AM 67.6°F19.8°C 60.1°F15.6°C 77% Calm Calm -- 30.15 in1021.0 mb 0.00 in0.0 mm 0.00 in0.0 mm 0.00 in0.0 mm
02:52 AM 67.6°F19.8°C 60.1°F15.6°C 78% Calm Calm -- 30.15 in1021.0 mb 0.00 in0.0 mm 0.00 in0.0 mm 0.00 in0.0 mm
02:57 AM 67.6°F19.8°C 60.1°F15.6°C 77% Calm Calm -- 30.15 in1021.0 mb 0.00 in0.0 mm 0.00 in0.0 mm 0.00 in0.0 mm
03:02 AM 67.6°F19.8°C 60.1°F15.6°C 77% Calm Calm -- 30.15 in1021.0 mb 0.00 in0.0 mm 0.00 in0.0 mm 0.00 in0.0 mm
03:08 AM 67.6°F19.8°C 60.1°F15.6°C 77% Calm Calm -- 30.16 in1021.3 mb 0.00 in0.0 mm 0.00 in0.0 mm 0.00 in0.0 mm
03:13 AM 67.6°F19.8°C 60.1°F15.6°C 77% Calm Calm -- 30.15 in1021.0 mb 0.00 in0.0 mm 0.00 in0.0 mm 0.00 in0.0 mm
03:18 AM 67.6°F19.8°C 60.1°F15.6°C 77% Calm Calm -- 30.16 in1021.3 mb 0.00 in0.0 mm 0.00 in0.0 mm 0.00 in0.0 mm
03:23 AM 67.6°F19.8°C 60.1°F15.6°C 78% Calm Calm -- 30.16 in1021.3 mb 0.00 in0.0 mm 0.00 in0.0 mm 0.00 in0.0 mm
03:29 AM 67.3°F19.6°C 60.1°F15.6°C 78% Calm Calm -- 30.15 in1021.0 mb 0.00 in0.0 mm 0.00 in0.0 mm 0.00 in0.0 mm
03:34 AM 67.3°F19.6°C 60.1°F15.6°C 78% Calm Calm -- 30.16 in1021.3 mb 0.00 in0.0 mm 0.00 in0.0 mm 0.00 in0.0 mm
03:39 AM 67.3°F19.6°C 60.1°F15.6°C 78% Calm Calm -- 30.16 in1021.3 mb 0.00 in0.0 mm 0.00 in0.0 mm 0.00 in0.0 mm
03:44 AM 67.3°F19.6°C 60.1°F15.6°C 77% Calm Calm -- 30.16 in1021.3 mb 0.00 in0.0 mm 0.00 in0.0 mm 0.00 in0.0 mm
03:50 AM 67.3°F19.6°C 60.1°F15.6°C 77% Calm Calm -- 30.16 in1021.3 mb 0.00 in0.0 mm 0.00 in0.0 mm 0.00 in0.0 mm
03:55 AM 67.5°F19.7°C 59.5°F15.3°C 76% Calm Calm -- 30.16 in1021.3 mb 0.00 in0.0 mm 0.00 in0.0 mm 0.00 in0.0 mm
04:00 AM 67.6°F19.8°C 59.7°F15.4°C 76% Calm Calm -- 30.16 in1021.3 mb 0.00 in0.0 mm 0.00 in0.0 mm 0.00 in0.0 mm
04:06 AM 67.6°F19.8°C 59.7°F15.4°C 76% Calm Calm -- 30.16 in1021.3 mb 0.00 in0.0 mm 0.00 in0.0 mm 0.00 in0.0 mm
04:11 AM 67.6°F19.8°C 59.7°F15.4°C 76% Calm Calm -- 30.16 in1021.3 mb 0.00 in0.0 mm 0.00 in0.0 mm 0.00 in0.0 mm
04:16 AM 67.6°F19.8°C 59.7°F15.4°C 75% Calm Calm -- 30.16 in1021.3 mb 0.00 in0.0 mm 0.00 in0.0 mm 0.00 in0.0 mm
04:21 AM 67.6°F19.8°C 59.7°F15.4°C 75% Calm Calm -- 30.16 in1021.3 mb 0.00 in0.0 mm 0.00 in0.0 mm 0.00 in0.0 mm
04:27 AM 67.6°F19.8°C 59.7°F15.4°C 75% Calm Calm -- 30.16 in1021.3 mb 0.00 in0.0 mm 0.00 in0.0 mm 0.00 in0.0 mm
04:32 AM 67.5°F19.7°C 59.2°F15.1°C 75% Calm Calm -- 30.16 in1021.3 mb 0.00 in0.0 mm 0.00 in0.0 mm 0.00 in0.0 mm
04:38 AM 67.6°F19.8°C 59.4°F15.2°C 75% Calm Calm -- 30.16 in1021.3 mb 0.00 in0.0 mm 0.00 in0.0 mm 0.00 in0.0 mm
04:43 AM 67.6°F19.8°C 59.4°F15.2°C 75% Calm Calm -- 30.16 in1021.3 mb 0.00 in0.0 mm 0.00 in0.0 mm 0.00 in0.0 mm
04:48 AM 67.6°F19.8°C 59.4°F15.2°C 75% Calm Calm -- 30.16 in1021.3 mb 0.00 in0.0 mm 0.00 in0.0 mm 0.00 in0.0 mm
04:53 AM 67.8°F19.9°C 59.2°F15.1°C 74% Calm Calm -- 30.16 in1021.3 mb 0.00 in0.0 mm 0.00 in0.0 mm 0.00 in0.0 mm
04:59 AM 68.4°F20.2°C 59.4°F15.2°C 73% Calm Calm -- 30.16 in1021.3 mb 0.00 in0.0 mm 0.00 in0.0 mm 0.00 in0.0 mm
05:04 AM 68.5°F20.3°C 59.0°F15.0°C 72% 3.9 mph SSE6.3 kmh SSE 4.0 mph6.4 kmh 30.16 in1021.3 mb 0.00 in0.0 mm 0.00 in0.0 mm 0.00 in0.0 mm
05:09 AM 68.5°F20.3°C 59.0°F15.0°C 72% 4.7 mph SSE7.6 kmh SSE 5.1 mph8.2 kmh 30.16 in1021.3 mb 0.00 in0.0 mm 0.00 in0.0 mm 0.00 in0.0 mm
05:14 AM 68.7°F20.4°C 58.8°F14.9°C 71% 2.8 mph SSE4.5 kmh SSE 8.9 mph14.3 kmh 30.16 in1021.3 mb 0.00 in0.0 mm 0.00 in0.0 mm 0.00 in0.0 mm
05:20 AM 69.1°F20.6°C 58.5°F14.7°C 69% 6.3 mph S10.1 kmh S 16.3 mph26.2 kmh 30.16 in1021.3 mb 0.00 in0.0 mm 0.00 in0.0 mm 0.00 in0.0 mm
05:25 AM 69.4°F20.8°C 58.3°F14.6°C 68% 3.9 mph S6.3 kmh S 16.3 mph26.2 kmh 30.16 in1021.3 mb 0.00 in0.0 mm 0.00 in0.0 mm 0.00 in0.0 mm
05:30 AM 69.4°F20.8°C 57.9°F14.4°C 67% 6.5 mph S10.5 kmh S 17.8 mph28.6 kmh 30.16 in1021.3 mb 0.00 in0.0 mm 0.00 in0.0 mm 0.00 in0.0 mm
05:35 AM 69.6°F20.9°C 57.6°F14.2°C 66% 5.2 mph S8.4 kmh S 17.8 mph28.6 kmh 30.16 in1021.3 mb 0.00 in0.0 mm 0.00 in0.0 mm 0.00 in0.0 mm
05:41 AM 69.6°F20.9°C 57.6°F14.2°C 66% 3.8 mph SSE6.1 kmh SSE 15.2 mph24.5 kmh 30.16 in1021.3 mb 0.00 in0.0 mm 0.00 in0.0 mm 0.00 in0.0 mm
05:46 AM 69.8°F21.0°C 57.7°F14.3°C 66% 5.7 mph S9.2 kmh S 15.2 mph24.5 kmh 30.16 in1021.3 mb 0.00 in0.0 mm 0.00 in0.0 mm 0.00 in0.0 mm
05:51 AM 70.0°F21.1°C 57.9°F14.4°C 66% 4.7 mph S7.6 kmh S 14.9 mph24.0 kmh 30.16 in1021.3 mb 0.00 in0.0 mm 0.00 in0.0 mm 0.00 in0.0 mm
05:56 AM 70.3°F21.3°C 57.9°F14.4°C 65% 5.7 mph S9.2 kmh S 15.6 mph25.1 kmh 30.16 in1021.3 mb 0.00 in0.0 mm 0.00 in0.0 mm 0.00 in0.0 mm
06:02 AM 70.3°F21.3°C 57.9°F14.4°C 65% 3.6 mph SSE5.8 kmh SSE 17.2 mph27.7 kmh 30.16 in1021.3 mb 0.00 in0.0 mm 0.00 in0.0 mm 0.00 in0.0 mm
06:07 AM 70.5°F21.4°C 57.6°F14.2°C 64% 0.8 mph S1.3 kmh S 17.8 mph28.6 kmh 30.16 in1021.3 mb 0.00 in0.0 mm 0.00 in0.0 mm 0.00 in0.0 mm
06:12 AM 70.7°F21.5°C 57.7°F14.3°C 64% 2.3 mph SE3.7 kmh SE 17.8 mph28.6 kmh 30.16 in1021.3 mb 0.00 in0.0 mm 0.00 in0.0 mm 0.00 in0.0 mm
06:17 AM 70.9°F21.6°C 57.6°F14.2°C 63% 4.0 mph S6.4 kmh S 11.8 mph19.0 kmh 30.16 in1021.3 mb 0.00 in0.0 mm 0.00 in0.0 mm 0.00 in0.0 mm
06:23 AM 70.9°F21.6°C 57.6°F14.2°C 63% 4.0 mph S6.4 kmh S 20.1 mph32.3 kmh 30.16 in1021.3 mb 0.00 in0.0 mm 0.00 in0.0 mm 0.00 in0.0 mm
06:28 AM 71.2°F21.8°C 57.9°F14.4°C 63% 3.8 mph SSE6.1 kmh SSE 20.1 mph32.3 kmh 30.16 in1021.3 mb 0.00 in0.0 mm 0.00 in0.0 mm 0.00 in0.0 mm
06:33 AM 71.2°F21.8°C 57.4°F14.1°C 62% 3.8 mph S6.1 kmh S 12.0 mph19.3 kmh 30.17 in1021.7 mb 0.00 in0.0 mm 0.00 in0.0 mm 0.00 in0.0 mm
06:38 AM 71.4°F21.9°C 57.6°F14.2°C 62% Calm Calm 12.0 mph19.3 kmh 30.17 in1021.7 mb 0.00 in0.0 mm 0.00 in0.0 mm 0.00 in0.0 mm
06:44 AM 71.8°F22.1°C 57.6°F14.2°C 61% 2.6 mph SSE4.2 kmh SSE 22.3 mph35.9 kmh 30.17 in1021.7 mb 0.00 in0.0 mm 0.00 in0.0 mm 0.00 in0.0 mm
06:50 AM 71.8°F22.1°C 57.6°F14.2°C 61% 2.4 mph S3.9 kmh S 22.3 mph35.9 kmh 30.17 in1021.7 mb 0.00 in0.0 mm 0.00 in0.0 mm 0.00 in0.0 mm
06:55 AM 71.8°F22.1°C 57.6°F14.2°C 61% 2.3 mph SE3.7 kmh SE 2.6 mph4.2 kmh 30.17 in1021.7 mb 0.00 in0.0 mm 0.00 in0.0 mm 0.00 in0.0 mm
07:00 AM 72.0°F22.2°C 57.7°F14.3°C 61% 3.4 mph SSE5.5 kmh SSE 4.6 mph7.4 kmh 30.17 in1021.7 mb 0.00 in0.0 mm 0.00 in0.0 mm 0.00 in0.0 mm
07:07 AM 71.8°F22.1°C 57.9°F14.4°C 62% 2.3 mph SE3.7 kmh SE 4.6 mph7.4 kmh 30.17 in1021.7 mb 0.00 in0.0 mm 0.00 in0.0 mm 0.00 in0.0 mm
07:12 AM 72.0°F22.2°C 58.1°F14.5°C 62% 2.3 mph E3.7 kmh E 2.6 mph4.2 kmh 30.17 in1021.7 mb 0.00 in0.0 mm 0.00 in0.0 mm 0.00 in0.0 mm
07:17 AM 72.0°F22.2°C 58.1°F14.5°C 62% 0.8 mph SE1.3 kmh SE 2.6 mph4.2 kmh 30.17 in1021.7 mb 0.00 in0.0 mm 0.00 in0.0 mm 0.00 in0.0 mm
07:22 AM 72.1°F22.3°C 58.3°F14.6°C 62% 1.5 mph SSW2.4 kmh SSW 2.6 mph4.2 kmh 30.17 in1021.7 mb 0.00 in0.0 mm 0.00 in0.0 mm 0.00 in0.0 mm
07:28 AM 72.1°F22.3°C 58.3°F14.6°C 63% Calm Calm 2.4 mph3.9 kmh 30.17 in1021.7 mb 0.00 in0.0 mm 0.00 in0.0 mm 0.00 in0.0 mm
07:33 AM 71.9°F22.2°C 58.8°F14.9°C 63% 1.1 mph ESE1.8 kmh ESE 2.4 mph3.9 kmh 30.18 in1022.0 mb 0.00 in0.0 mm 0.00 in0.0 mm 0.00 in0.0 mm
07:38 AM 71.8°F22.1°C 58.8°F14.9°C 63% 3.3 mph SE5.3 kmh SE 4.6 mph7.4 kmh 30.17 in1021.7 mb 0.00 in0.0 mm 0.00 in0.0 mm 0.00 in0.0 mm
07:43 AM 72.0°F22.2°C 58.9°F14.9°C 63% 2.6 mph E4.2 kmh E 4.6 mph7.4 kmh 30.18 in1022.0 mb 0.00 in0.0 mm 0.00 in0.0 mm 0.00 in0.0 mm
07:49 AM 72.1°F22.3°C 59.0°F15.0°C 63% 1.3 mph ESE2.1 kmh ESE 3.5 mph5.6 kmh 30.18 in1022.0 mb 0.00 in0.0 mm 0.00 in0.0 mm 0.00 in0.0 mm
07:54 AM 72.5°F22.5°C 58.5°F14.7°C 61% 2.0 mph E3.2 kmh E 3.1 mph5.0 kmh 30.18 in1022.0 mb 0.00 in0.0 mm 0.00 in0.0 mm 0.00 in0.0 mm
07:59 AM 72.8°F22.7°C 58.3°F14.6°C 60% 1.5 mph ESE2.4 kmh ESE 3.3 mph5.3 kmh 30.18 in1022.0 mb 0.00 in0.0 mm 0.00 in0.0 mm 0.00 in0.0 mm
08:04 AM 72.2°F22.3°C 58.2°F14.6°C 61% 4.2 mph E6.8 kmh E 5.3 mph8.5 kmh 30.18 in1022.0 mb 0.00 in0.0 mm 0.00 in0.0 mm 0.00 in0.0 mm
08:10 AM 72.4°F22.4°C 58.9°F14.9°C 62% 5.1 mph ESE8.2 kmh ESE 12.3 mph19.8 kmh 30.18 in1022.0 mb 0.00 in0.0 mm 0.00 in0.0 mm 0.00 in0.0 mm
08:15 AM 72.6°F22.6°C 58.6°F14.8°C 61% 4.0 mph E6.4 kmh E 13.6 mph21.9 kmh 30.19 in1022.4 mb 0.00 in0.0 mm 0.00 in0.0 mm 0.00 in0.0 mm
08:20 AM 73.5°F23.1°C 58.5°F14.7°C 59% 3.3 mph ESE5.3 kmh ESE 13.6 mph21.9 kmh 30.18 in1022.0 mb 0.00 in0.0 mm 0.00 in0.0 mm 0.00 in0.0 mm
08:25 AM 73.6°F23.1°C 58.6°F14.8°C 59% Calm Calm 3.3 mph5.3 kmh 30.18 in1022.0 mb 0.00 in0.0 mm 0.00 in0.0 mm 0.00 in0.0 mm
08:31 AM 74.1°F23.4°C 58.6°F14.8°C 58% 3.8 mph ESE6.1 kmh ESE 3.8 mph6.1 kmh 30.19 in1022.4 mb 0.00 in0.0 mm 0.00 in0.0 mm 0.00 in0.0 mm
08:36 AM 73.7°F23.2°C 59.1°F15.1°C 60% 3.5 mph ESE5.6 kmh ESE 4.0 mph6.4 kmh 30.19 in1022.4 mb 0.00 in0.0 mm 0.00 in0.0 mm 0.00 in0.0 mm
08:41 AM 73.4°F23.0°C 58.4°F14.7°C 59% 3.1 mph E5.0 kmh E 4.0 mph6.4 kmh 30.19 in1022.4 mb 0.00 in0.0 mm 0.00 in0.0 mm 0.00 in0.0 mm
08:46 AM 74.0°F23.3°C 59.0°F15.0°C 59% 4.0 mph E6.4 kmh E 4.0 mph6.4 kmh 30.19 in1022.4 mb 0.00 in0.0 mm 0.00 in0.0 mm 0.00 in0.0 mm
08:52 AM 74.1°F23.4°C 59.5°F15.3°C 60% 3.5 mph ESE5.6 kmh ESE 4.0 mph6.4 kmh 30.19 in1022.4 mb 0.00 in0.0 mm 0.00 in0.0 mm 0.00 in0.0 mm
08:57 AM 74.7°F23.7°C 59.6°F15.3°C 59% 3.8 mph E6.1 kmh E 3.8 mph6.1 kmh 30.19 in1022.4 mb 0.00 in0.0 mm 0.00 in0.0 mm 0.00 in0.0 mm
09:02 AM 74.6°F23.7°C 59.5°F15.3°C 59% 2.1 mph E3.4 kmh E 4.4 mph7.1 kmh 30.19 in1022.4 mb 0.00 in0.0 mm 0.00 in0.0 mm 0.00 in0.0 mm
09:07 AM 74.6°F23.7°C 59.5°F15.3°C 59% 2.9 mph E4.7 kmh E 4.4 mph7.1 kmh 30.19 in1022.4 mb 0.00 in0.0 mm 0.00 in0.0 mm 0.00 in0.0 mm
09:13 AM 75.1°F23.9°C 60.0°F15.6°C 59% 2.0 mph ENE3.2 kmh ENE 4.4 mph7.1 kmh 30.20 in1022.7 mb 0.00 in0.0 mm 0.00 in0.0 mm 0.00 in0.0 mm
09:18 AM 75.2°F24.0°C 59.6°F15.3°C 58% 1.3 mph E2.1 kmh E 2.0 mph3.2 kmh 30.20 in1022.7 mb 0.00 in0.0 mm 0.00 in0.0 mm 0.00 in0.0 mm
09:24 AM 75.3°F24.1°C 59.7°F15.4°C 58% 2.2 mph E3.5 kmh E 2.2 mph3.5 kmh 30.20 in1022.7 mb 0.00 in0.0 mm 0.00 in0.0 mm 0.00 in0.0 mm
09:29 AM 74.9°F23.8°C 59.8°F15.4°C 59% 3.5 mph SE5.6 kmh SE 3.5 mph5.6 kmh 30.20 in1022.7 mb 0.00 in0.0 mm 0.00 in0.0 mm 0.00 in0.0 mm
09:34 AM 74.8°F23.8°C 60.2°F15.7°C 60% Calm Calm 3.5 mph5.6 kmh 30.20 in1022.7 mb 0.00 in0.0 mm 0.00 in0.0 mm 0.00 in0.0 mm
09:39 AM 74.9°F23.8°C 60.3°F15.7°C 60% 0.6 mph ENE1.0 kmh ENE 0.6 mph1.0 kmh 30.20 in1022.7 mb 0.00 in0.0 mm 0.00 in0.0 mm 0.00 in0.0 mm
09:45 AM 74.7°F23.7°C 59.6°F15.3°C 59% Calm Calm 0.6 mph1.0 kmh 30.20 in1022.7 mb 0.00 in0.0 mm 0.00 in0.0 mm 0.00 in0.0 mm
09:50 AM 75.0°F23.9°C 59.9°F15.5°C 59% Calm Calm 0.6 mph1.0 kmh 30.20 in1022.7 mb 0.00 in0.0 mm 0.00 in0.0 mm 0.00 in0.0 mm
09:55 AM 74.3°F23.5°C 59.2°F15.1°C 59% 1.3 mph ESE2.1 kmh ESE 2.4 mph3.9 kmh 30.20 in1022.7 mb 0.00 in0.0 mm 0.00 in0.0 mm 0.00 in0.0 mm
10:00 AM 74.9°F23.8°C 59.8°F15.4°C 59% 0.6 mph SE1.0 kmh SE 2.4 mph3.9 kmh 30.20 in1022.7 mb 0.00 in0.0 mm 0.00 in0.0 mm 0.00 in0.0 mm
10:06 AM 76.7°F24.8°C 60.5°F15.8°C 57% Calm Calm 2.4 mph3.9 kmh 30.20 in1022.7 mb 0.00 in0.0 mm 0.00 in0.0 mm 0.00 in0.0 mm
10:11 AM 77.4°F25.2°C 60.7°F15.9°C 56% Calm Calm -- 30.20 in1022.7 mb 0.00 in0.0 mm 0.00 in0.0 mm 0.00 in0.0 mm
10:16 AM 79.6°F26.4°C 60.0°F15.6°C 51% 2.6 mph NNE4.2 kmh NNE 3.3 mph5.3 kmh 30.20 in1022.7 mb 0.00 in0.0 mm 0.00 in0.0 mm 0.00 in0.0 mm
10:21 AM 82.6°F28.1°C 59.1°F15.1°C 45% 0.8 mph NNE1.3 kmh NNE 3.3 mph5.3 kmh 30.20 in1022.7 mb 0.00 in0.0 mm 0.00 in0.0 mm 0.00 in0.0 mm
10:27 AM 84.2°F29.0°C 60.0°F15.6°C 44% Calm Calm 2.6 mph4.2 kmh 30.20 in1022.7 mb 0.00 in0.0 mm 0.00 in0.0 mm 0.00 in0.0 mm
10:32 AM 86.0°F30.0°C 60.3°F15.7°C 42% Calm Calm 0.8 mph1.3 kmh 30.20 in1022.7 mb 0.00 in0.0 mm 0.00 in0.0 mm 0.00 in0.0 mm
10:37 AM 83.8°F28.8°C 58.9°F14.9°C 43% Calm Calm 0.8 mph1.3 kmh 30.20 in1022.7 mb 0.00 in0.0 mm 0.00 in0.0 mm 0.00 in0.0 mm
10:42 AM 85.1°F29.5°C 58.0°F14.4°C 40% 3.3 mph NE5.3 kmh NE 3.3 mph5.3 kmh 30.20 in1022.7 mb 0.00 in0.0 mm 0.00 in0.0 mm 0.00 in0.0 mm
10:48 AM 83.4°F28.6°C 57.9°F14.4°C 42% Calm Calm 3.3 mph5.3 kmh 30.20 in1022.7 mb 0.00 in0.0 mm 0.00 in0.0 mm 0.00 in0.0 mm
10:53 AM 85.3°F29.6°C 59.6°F15.3°C 42% Calm Calm 3.3 mph5.3 kmh 30.20 in1022.7 mb 0.00 in0.0 mm 0.00 in0.0 mm 0.00 in0.0 mm
10:58 AM 84.8°F29.3°C 58.5°F14.7°C 41% 3.7 mph NW6.0 kmh NW 4.0 mph6.4 kmh 30.20 in1022.7 mb 0.00 in0.0 mm 0.00 in0.0 mm 0.00 in0.0 mm
11:03 AM 82.9°F28.3°C 57.4°F14.1°C 42% 0.8 mph ENE1.3 kmh ENE 4.0 mph6.4 kmh 30.20 in1022.7 mb 0.00 in0.0 mm 0.00 in0.0 mm 0.00 in0.0 mm
11:09 AM 83.2°F28.4°C 57.0°F13.9°C 41% 4.4 mph ESE7.1 kmh ESE 4.4 mph7.1 kmh 30.20 in1022.7 mb 0.00 in0.0 mm 0.00 in0.0 mm 0.00 in0.0 mm
11:14 AM 82.7°F28.2°C 57.9°F14.4°C 43% 1.3 mph SSE2.1 kmh SSE 4.4 mph7.1 kmh 30.20 in1022.7 mb 0.00 in0.0 mm 0.00 in0.0 mm 0.00 in0.0 mm
11:19 AM 81.7°F27.6°C 56.4°F13.6°C 42% 3.1 mph SSE5.0 kmh SSE 4.4 mph7.1 kmh 30.20 in1022.7 mb 0.00 in0.0 mm 0.00 in0.0 mm 0.00 in0.0 mm
11:24 AM 82.4°F28.0°C 56.9°F13.8°C 42% 3.0 mph SSE4.8 kmh SSE 4.4 mph7.1 kmh 30.20 in1022.7 mb 0.00 in0.0 mm 0.00 in0.0 mm 0.00 in0.0 mm
11:30 AM 84.1°F28.9°C 57.8°F14.3°C 41% 3.8 mph ENE6.1 kmh ENE 3.8 mph6.1 kmh 30.19 in1022.4 mb 0.00 in0.0 mm 0.00 in0.0 mm 0.00 in0.0 mm
11:35 AM 82.4°F28.0°C 57.0°F13.9°C 42% 4.8 mph SE7.7 kmh SE 13.4 mph21.6 kmh 30.19 in1022.4 mb 0.00 in0.0 mm 0.00 in0.0 mm 0.00 in0.0 mm
11:40 AM 82.1°F27.8°C 56.7°F13.7°C 42% 1.1 mph S1.8 kmh S 18.7 mph30.1 kmh 30.20 in1022.7 mb 0.00 in0.0 mm 0.00 in0.0 mm 0.00 in0.0 mm
11:45 AM 83.6°F28.7°C 55.9°F13.3°C 39% 2.4 mph SSE3.9 kmh SSE 18.7 mph30.1 kmh 30.20 in1022.7 mb 0.00 in0.0 mm 0.00 in0.0 mm 0.00 in0.0 mm
11:51 AM 83.1°F28.4°C 57.6°F14.2°C 42% 2.0 mph E3.2 kmh E 2.4 mph3.9 kmh 30.20 in1022.7 mb 0.00 in0.0 mm 0.00 in0.0 mm 0.00 in0.0 mm
11:56 AM 83.0°F28.3°C 56.9°F13.8°C 41% 4.2 mph E6.8 kmh E 4.2 mph6.8 kmh 30.20 in1022.7 mb 0.00 in0.0 mm 0.00 in0.0 mm 0.00 in0.0 mm
12:01 PM 84.5°F29.2°C 57.5°F14.2°C 40% 3.4 mph SE5.5 kmh SE 4.2 mph6.8 kmh 30.20 in1022.7 mb 0.00 in0.0 mm 0.00 in0.0 mm 0.00 in0.0 mm
12:06 PM 82.9°F28.3°C 56.8°F13.8°C 41% 5.1 mph SE8.2 kmh SE 8.7 mph14.0 kmh 30.19 in1022.4 mb 0.00 in0.0 mm 0.00 in0.0 mm 0.00 in0.0 mm
12:11 PM 85.4°F29.7°C 57.6°F14.2°C 39% 3.1 mph SSW5.0 kmh SSW 11.6 mph18.7 kmh 30.19 in1022.4 mb 0.00 in0.0 mm 0.00 in0.0 mm 0.00 in0.0 mm
12:17 PM 84.2°F29.0°C 56.5°F13.6°C 39% 2.2 mph NE3.5 kmh NE 4.9 mph7.9 kmh 30.18 in1022.0 mb 0.00 in0.0 mm 0.00 in0.0 mm 0.00 in0.0 mm
12:22 PM 83.7°F28.7°C 57.5°F14.2°C 41% 2.6 mph ESE4.2 kmh ESE 3.3 mph5.3 kmh 30.19 in1022.4 mb 0.00 in0.0 mm 0.00 in0.0 mm 0.00 in0.0 mm
12:27 PM 82.3°F27.9°C 56.9°F13.8°C 42% 3.3 mph E5.3 kmh E 4.6 mph7.4 kmh 30.19 in1022.4 mb 0.00 in0.0 mm 0.00 in0.0 mm 0.00 in0.0 mm
12:32 PM 82.6°F28.1°C 57.8°F14.3°C 43% 3.1 mph ENE5.0 kmh ENE 4.6 mph7.4 kmh 30.18 in1022.0 mb 0.00 in0.0 mm 0.00 in0.0 mm 0.00 in0.0 mm
12:38 PM 83.1°F28.4°C 57.6°F14.2°C 42% 3.5 mph E5.6 kmh E 9.1 mph14.6 kmh 30.18 in1022.0 mb 0.00 in0.0 mm 0.00 in0.0 mm 0.00 in0.0 mm
12:43 PM 82.7°F28.2°C 57.3°F14.1°C 42% 1.5 mph NE2.4 kmh NE 9.1 mph14.6 kmh 30.18 in1022.0 mb 0.00 in0.0 mm 0.00 in0.0 mm 0.00 in0.0 mm
12:48 PM 82.5°F28.1°C 56.4°F13.6°C 41% 3.7 mph E6.0 kmh E 4.9 mph7.9 kmh 30.18 in1022.0 mb 0.00 in0.0 mm 0.00 in0.0 mm 0.00 in0.0 mm
12:53 PM 84.0°F28.9°C 57.7°F14.3°C 41% 3.8 mph SSW6.1 kmh SSW 4.9 mph7.9 kmh 30.17 in1021.7 mb 0.00 in0.0 mm 0.00 in0.0 mm 0.00 in0.0 mm
12:59 PM 83.4°F28.6°C 57.2°F14.0°C 41% 3.9 mph E6.3 kmh E 4.9 mph7.9 kmh 30.17 in1021.7 mb 0.00 in0.0 mm 0.00 in0.0 mm 0.00 in0.0 mm
01:04 PM 82.5°F28.1°C 57.7°F14.3°C 43% Calm Calm 4.2 mph6.8 kmh 30.17 in1021.7 mb 0.00 in0.0 mm 0.00 in0.0 mm 0.00 in0.0 mm
01:09 PM 81.6°F27.6°C 56.3°F13.5°C 42% 2.0 mph 3.2 kmh 4.2 mph6.8 kmh 30.17 in1021.7 mb 0.00 in0.0 mm 0.00 in0.0 mm 0.00 in0.0 mm
01:14 PM 82.2°F27.9°C 57.5°F14.2°C 43% Calm Calm 2.4 mph3.9 kmh 30.17 in1021.7 mb 0.00 in0.0 mm 0.00 in0.0 mm 0.00 in0.0 mm
01:20 PM 84.2°F29.0°C 57.2°F14.0°C 40% 5.3 mph E8.5 kmh E 5.3 mph8.5 kmh 30.17 in1021.7 mb 0.00 in0.0 mm 0.00 in0.0 mm 0.00 in0.0 mm
01:25 PM 83.0°F28.3°C 57.5°F14.2°C 42% 2.9 mph ENE4.7 kmh ENE 5.3 mph8.5 kmh 30.17 in1021.7 mb 0.00 in0.0 mm 0.00 in0.0 mm 0.00 in0.0 mm
01:30 PM 83.2°F28.4°C 57.0°F13.9°C 41% 3.4 mph NE5.5 kmh NE 5.3 mph8.5 kmh 30.16 in1021.3 mb 0.00 in0.0 mm 0.00 in0.0 mm 0.00 in0.0 mm
01:35 PM 84.1°F28.9°C 57.1°F13.9°C 40% 2.9 mph SE4.7 kmh SE 4.4 mph7.1 kmh 30.16 in1021.3 mb 0.00 in0.0 mm 0.00 in0.0 mm 0.00 in0.0 mm
01:41 PM 84.6°F29.2°C 55.4°F13.0°C 37% 3.4 mph ESE5.5 kmh ESE 9.1 mph14.6 kmh 30.16 in1021.3 mb 0.00 in0.0 mm 0.00 in0.0 mm 0.00 in0.0 mm
01:46 PM 84.4°F29.1°C 55.9°F13.3°C 38% 5.5 mph S8.9 kmh S 9.3 mph15.0 kmh 30.16 in1021.3 mb 0.00 in0.0 mm 0.00 in0.0 mm 0.00 in0.0 mm
01:51 PM 84.9°F29.4°C 55.7°F13.2°C 37% 3.3 mph E5.3 kmh E 21.2 mph34.1 kmh 30.16 in1021.3 mb 0.00 in0.0 mm 0.00 in0.0 mm 0.00 in0.0 mm
01:56 PM 85.2°F29.6°C 55.9°F13.3°C 37% 4.5 mph SSE7.2 kmh SSE 21.2 mph34.1 kmh 30.15 in1021.0 mb 0.00 in0.0 mm 0.00 in0.0 mm 0.00 in0.0 mm
02:02 PM 85.4°F29.7°C 55.3°F12.9°C 36% 3.7 mph S6.0 kmh S 22.3 mph35.9 kmh 30.16 in1021.3 mb 0.00 in0.0 mm 0.00 in0.0 mm 0.00 in0.0 mm
02:07 PM 88.0°F31.1°C 56.0°F13.3°C 34% 2.9 mph NNE4.7 kmh NNE 22.3 mph35.9 kmh 30.15 in1021.0 mb 0.00 in0.0 mm 0.00 in0.0 mm 0.00 in0.0 mm
02:12 PM 87.6°F30.9°C 56.5°F13.6°C 35% 2.6 mph S4.2 kmh S 4.0 mph6.4 kmh 30.15 in1021.0 mb 0.00 in0.0 mm 0.00 in0.0 mm 0.00 in0.0 mm
02:17 PM 87.2°F30.7°C 56.9°F13.8°C 36% 4.6 mph S7.4 kmh S 25.2 mph40.6 kmh 30.14 in1020.7 mb 0.00 in0.0 mm 0.00 in0.0 mm 0.00 in0.0 mm
02:23 PM 84.6°F29.2°C 54.6°F12.6°C 36% 5.1 mph ESE8.2 kmh ESE 25.2 mph40.6 kmh 30.14 in1020.7 mb 0.00 in0.0 mm 0.00 in0.0 mm 0.00 in0.0 mm
02:28 PM 84.7°F29.3°C 55.4°F13.0°C 37% 3.6 mph E5.8 kmh E 17.8 mph28.6 kmh 30.14 in1020.7 mb 0.00 in0.0 mm 0.00 in0.0 mm 0.00 in0.0 mm
02:33 PM 85.9°F29.9°C 55.8°F13.2°C 36% 1.7 mph SE2.7 kmh SE 17.8 mph28.6 kmh 30.15 in1021.0 mb 0.00 in0.0 mm 0.00 in0.0 mm 0.00 in0.0 mm
02:38 PM 84.8°F29.3°C 55.6°F13.1°C 37% 4.0 mph E6.4 kmh E 4.4 mph7.1 kmh 30.14 in1020.7 mb 0.00 in0.0 mm 0.00 in0.0 mm 0.00 in0.0 mm
02:44 PM 85.8°F29.9°C 56.4°F13.6°C 37% Calm Calm 4.4 mph7.1 kmh 30.14 in1020.7 mb 0.00 in0.0 mm 0.00 in0.0 mm 0.00 in0.0 mm
02:49 PM 86.6°F30.3°C 55.6°F13.1°C 35% 5.4 mph E8.7 kmh E 12.7 mph20.4 kmh 30.13 in1020.3 mb 0.00 in0.0 mm 0.00 in0.0 mm 0.00 in0.0 mm
02:54 PM 87.2°F30.7°C 56.9°F13.8°C 36% Calm Calm 15.6 mph25.1 kmh 30.13 in1020.3 mb 0.00 in0.0 mm 0.00 in0.0 mm 0.00 in0.0 mm
02:59 PM 89.5°F31.9°C 57.3°F14.1°C 34% 3.1 mph E5.0 kmh E 8.9 mph14.3 kmh 30.13 in1020.3 mb 0.00 in0.0 mm 0.00 in0.0 mm 0.00 in0.0 mm
03:05 PM 86.2°F30.1°C 56.0°F13.3°C 36% 3.8 mph E6.1 kmh E 17.6 mph28.3 kmh 30.12 in1020.0 mb 0.00 in0.0 mm 0.00 in0.0 mm 0.00 in0.0 mm
03:10 PM 87.2°F30.7°C 56.9°F13.8°C 36% 2.0 mph NE3.2 kmh NE 17.6 mph28.3 kmh 30.13 in1020.3 mb 0.00 in0.0 mm 0.00 in0.0 mm 0.00 in0.0 mm
03:15 PM 86.7°F30.4°C 56.4°F13.6°C 36% 4.4 mph SE7.1 kmh SE 12.3 mph19.8 kmh 30.13 in1020.3 mb 0.00 in0.0 mm 0.00 in0.0 mm 0.00 in0.0 mm
03:20 PM 88.3°F31.3°C 56.3°F13.5°C 34% 0.9 mph N1.4 kmh N 4.6 mph7.4 kmh 30.13 in1020.3 mb 0.00 in0.0 mm 0.00 in0.0 mm 0.00 in0.0 mm
03:26 PM 88.4°F31.3°C 57.2°F14.0°C 35% Calm Calm 1.3 mph2.1 kmh 30.13 in1020.3 mb 0.00 in0.0 mm 0.00 in0.0 mm 0.00 in0.0 mm
03:31 PM 89.2°F31.8°C 55.4°F13.0°C 32% 4.6 mph S7.4 kmh S 4.6 mph7.4 kmh 30.12 in1020.0 mb 0.00 in0.0 mm 0.00 in0.0 mm 0.00 in0.0 mm
03:36 PM 89.5°F31.9°C 55.7°F13.2°C 32% 4.4 mph E7.1 kmh E 4.6 mph7.4 kmh 30.12 in1020.0 mb 0.00 in0.0 mm 0.00 in0.0 mm 0.00 in0.0 mm
03:41 PM 87.8°F31.0°C 55.0°F12.8°C 33% 2.6 mph ENE4.2 kmh ENE 4.6 mph7.4 kmh 30.12 in1020.0 mb 0.00 in0.0 mm 0.00 in0.0 mm 0.00 in0.0 mm
03:47 PM 85.6°F29.8°C 53.9°F12.2°C 34% 3.8 mph ESE6.1 kmh ESE 4.4 mph7.1 kmh 30.12 in1020.0 mb 0.00 in0.0 mm 0.00 in0.0 mm 0.00 in0.0 mm
03:52 PM 85.9°F29.9°C 55.0°F12.8°C 35% 3.3 mph ESE5.3 kmh ESE 4.4 mph7.1 kmh 30.12 in1020.0 mb 0.00 in0.0 mm 0.00 in0.0 mm 0.00 in0.0 mm
03:57 PM 85.8°F29.9°C 54.9°F12.7°C 35% 4.5 mph SE7.2 kmh SE 15.6 mph25.1 kmh 30.12 in1020.0 mb 0.00 in0.0 mm 0.00 in0.0 mm 0.00 in0.0 mm
04:02 PM 86.3°F30.2°C 56.1°F13.4°C 36% 4.3 mph SE6.9 kmh SE 15.6 mph25.1 kmh 30.12 in1020.0 mb 0.00 in0.0 mm 0.00 in0.0 mm 0.00 in0.0 mm
04:07 PM 86.3°F30.2°C 56.1°F13.4°C 36% 3.6 mph S5.8 kmh S 14.0 mph22.5 kmh 30.12 in1020.0 mb 0.00 in0.0 mm 0.00 in0.0 mm 0.00 in0.0 mm
04:13 PM 86.2°F30.1°C 56.0°F13.3°C 36% 4.9 mph SSE7.9 kmh SSE 14.0 mph22.5 kmh 30.12 in1020.0 mb 0.00 in0.0 mm 0.00 in0.0 mm 0.00 in0.0 mm
04:18 PM 85.8°F29.9°C 56.5°F13.6°C 37% 4.7 mph SSW7.6 kmh SSW 14.0 mph22.5 kmh 30.12 in1020.0 mb 0.00 in0.0 mm 0.00 in0.0 mm 0.00 in0.0 mm
04:23 PM 86.2°F30.1°C 56.8°F13.8°C 37% 4.5 mph S7.2 kmh S 17.8 mph28.6 kmh 30.12 in1020.0 mb 0.00 in0.0 mm 0.00 in0.0 mm 0.00 in0.0 mm
04:28 PM 84.8°F29.3°C 58.4°F14.7°C 41% 7.0 mph SE11.3 kmh SE 17.8 mph28.6 kmh 30.12 in1020.0 mb 0.00 in0.0 mm 0.00 in0.0 mm 0.00 in0.0 mm
04:34 PM 84.2°F29.0°C 58.6°F14.8°C 42% 5.4 mph SE8.7 kmh SE 14.3 mph23.0 kmh 30.12 in1020.0 mb 0.00 in0.0 mm 0.00 in0.0 mm 0.00 in0.0 mm
04:39 PM 84.1°F28.9°C 59.2°F15.1°C 43% 6.2 mph S10.0 kmh S 15.6 mph25.1 kmh 30.12 in1020.0 mb 0.00 in0.0 mm 0.00 in0.0 mm 0.00 in0.0 mm
04:44 PM 84.3°F29.1°C 59.4°F15.2°C 43% 4.4 mph SSW7.1 kmh SSW 15.6 mph25.1 kmh 30.13 in1020.3 mb 0.00 in0.0 mm 0.00 in0.0 mm 0.00 in0.0 mm
04:49 PM 83.0°F28.3°C 60.8°F16.0°C 47% 4.6 mph SSW7.4 kmh SSW 12.5 mph20.1 kmh 30.13 in1020.3 mb 0.00 in0.0 mm 0.00 in0.0 mm 0.00 in0.0 mm
04:55 PM 83.0°F28.3°C 60.7°F15.9°C 47% 3.5 mph NW5.6 kmh NW 12.5 mph20.1 kmh 30.14 in1020.7 mb 0.00 in0.0 mm 0.00 in0.0 mm 0.00 in0.0 mm
05:00 PM 79.3°F26.3°C 59.5°F15.3°C 51% 4.4 mph NNE7.1 kmh NNE 14.3 mph23.0 kmh 30.14 in1020.7 mb 0.00 in0.0 mm 0.00 in0.0 mm 0.00 in0.0 mm
05:06 PM 78.6°F25.9°C 59.9°F15.5°C 53% 5.6 mph WNW9.0 kmh WNW 27.0 mph43.5 kmh 30.14 in1020.7 mb 0.00 in0.0 mm 0.00 in0.0 mm 0.00 in0.0 mm
05:11 PM 78.3°F25.7°C 61.2°F16.2°C 56% 4.7 mph WNW7.6 kmh WNW 27.0 mph43.5 kmh 30.14 in1020.7 mb 0.00 in0.0 mm 0.00 in0.0 mm 0.00 in0.0 mm
05:18 PM 76.6°F24.8°C 61.7°F16.5°C 60% 4.9 mph W7.9 kmh W 21.6 mph34.8 kmh 30.14 in1020.7 mb 0.00 in0.0 mm 0.00 in0.0 mm 0.00 in0.0 mm
05:24 PM 76.3°F24.6°C 60.8°F16.0°C 59% 4.8 mph WNW7.7 kmh WNW 21.6 mph34.8 kmh 30.14 in1020.7 mb 0.00 in0.0 mm 0.00 in0.0 mm 0.00 in0.0 mm
05:29 PM 76.6°F24.8°C 61.2°F16.2°C 59% 5.4 mph WNW8.7 kmh WNW 23.0 mph37.0 kmh 30.14 in1020.7 mb 0.00 in0.0 mm 0.00 in0.0 mm 0.00 in0.0 mm
05:34 PM 76.6°F24.8°C 60.6°F15.9°C 58% 5.9 mph NW9.5 kmh NW 16.5 mph26.6 kmh 30.14 in1020.7 mb 0.00 in0.0 mm 0.00 in0.0 mm 0.00 in0.0 mm
05:39 PM 77.2°F25.1°C 61.2°F16.2°C 58% 4.0 mph WNW6.4 kmh WNW 18.1 mph29.1 kmh 30.14 in1020.7 mb 0.00 in0.0 mm 0.00 in0.0 mm 0.00 in0.0 mm
05:45 PM 77.2°F25.1°C 61.2°F16.2°C 58% 3.9 mph WNW6.3 kmh WNW 18.1 mph29.1 kmh 30.14 in1020.7 mb 0.00 in0.0 mm 0.00 in0.0 mm 0.00 in0.0 mm
05:50 PM 77.2°F25.1°C 61.2°F16.2°C 58% 4.3 mph NW6.9 kmh NW 23.0 mph37.0 kmh 30.14 in1020.7 mb 0.00 in0.0 mm 0.00 in0.0 mm 0.00 in0.0 mm
05:55 PM 77.2°F25.1°C 61.2°F16.2°C 58% 3.3 mph WNW5.3 kmh WNW 23.0 mph37.0 kmh 30.14 in1020.7 mb 0.00 in0.0 mm 0.00 in0.0 mm 0.00 in0.0 mm
06:00 PM 76.6°F24.8°C 60.6°F15.9°C 58% 7.8 mph NW12.6 kmh NW 14.9 mph24.0 kmh 30.15 in1021.0 mb 0.00 in0.0 mm 0.00 in0.0 mm 0.00 in0.0 mm
06:06 PM 76.6°F24.8°C 61.2°F16.2°C 59% 4.7 mph NW7.6 kmh NW 21.2 mph34.1 kmh 30.15 in1021.0 mb 0.00 in0.0 mm 0.00 in0.0 mm 0.00 in0.0 mm
06:11 PM 76.6°F24.8°C 61.2°F16.2°C 59% 4.4 mph NW7.1 kmh NW 21.2 mph34.1 kmh 30.15 in1021.0 mb 0.00 in0.0 mm 0.00 in0.0 mm 0.00 in0.0 mm
06:16 PM 76.6°F24.8°C 60.6°F15.9°C 58% 4.8 mph WNW7.7 kmh WNW 21.4 mph34.4 kmh 30.15 in1021.0 mb 0.00 in0.0 mm 0.00 in0.0 mm 0.00 in0.0 mm
06:21 PM 76.3°F24.6°C 60.3°F15.7°C 58% 0.9 mph W1.4 kmh W 21.4 mph34.4 kmh 30.15 in1021.0 mb 0.00 in0.0 mm 0.00 in0.0 mm 0.00 in0.0 mm
06:27 PM 76.8°F24.9°C 60.3°F15.7°C 57% 5.0 mph NNE8.0 kmh NNE 12.7 mph20.4 kmh 30.15 in1021.0 mb 0.00 in0.0 mm 0.00 in0.0 mm 0.00 in0.0 mm
06:32 PM 75.6°F24.2°C 60.6°F15.9°C 60% 6.6 mph N10.6 kmh N 14.5 mph23.3 kmh 30.17 in1021.7 mb 0.00 in0.0 mm 0.00 in0.0 mm 0.00 in0.0 mm
06:37 PM 75.4°F24.1°C 61.0°F16.1°C 61% 5.6 mph N9.0 kmh N 20.1 mph32.3 kmh 30.17 in1021.7 mb 0.00 in0.0 mm 0.00 in0.0 mm 0.00 in0.0 mm
06:42 PM 74.3°F23.5°C 60.3°F15.7°C 62% 8.1 mph NNW13.0 kmh NNW 20.1 mph32.3 kmh 30.17 in1021.7 mb 0.00 in0.0 mm 0.00 in0.0 mm 0.00 in0.0 mm
06:47 PM 74.5°F23.6°C 60.1°F15.6°C 61% 7.0 mph NNW11.3 kmh NNW 15.6 mph25.1 kmh 30.17 in1021.7 mb 0.00 in0.0 mm 0.00 in0.0 mm 0.00 in0.0 mm
06:53 PM 74.8°F23.8°C 60.1°F15.6°C 60% 6.7 mph N10.8 kmh N 17.0 mph27.4 kmh 30.17 in1021.7 mb 0.00 in0.0 mm 0.00 in0.0 mm 0.00 in0.0 mm
06:58 PM 74.8°F23.8°C 60.1°F15.6°C 61% 5.8 mph NNW9.3 kmh NNW 17.0 mph27.4 kmh 30.17 in1021.7 mb 0.00 in0.0 mm 0.00 in0.0 mm 0.00 in0.0 mm
07:03 PM 74.7°F23.7°C 60.3°F15.7°C 61% 5.0 mph NW8.0 kmh NW 12.9 mph20.8 kmh 30.17 in1021.7 mb 0.00 in0.0 mm 0.00 in0.0 mm 0.00 in0.0 mm
07:09 PM 74.7°F23.7°C 60.3°F15.7°C 61% 4.2 mph NNW6.8 kmh NNW 12.9 mph20.8 kmh 30.17 in1021.7 mb 0.00 in0.0 mm 0.00 in0.0 mm 0.00 in0.0 mm
07:14 PM 74.7°F23.7°C 60.3°F15.7°C 61% 4.7 mph NNW7.6 kmh NNW 12.9 mph20.8 kmh 30.17 in1021.7 mb 0.00 in0.0 mm 0.00 in0.0 mm 0.00 in0.0 mm
07:19 PM 74.7°F23.7°C 60.3°F15.7°C 61% 2.4 mph NW3.9 kmh NW 27.9 mph44.9 kmh 30.18 in1022.0 mb 0.00 in0.0 mm 0.00 in0.0 mm 0.00 in0.0 mm
07:24 PM 74.5°F23.6°C 60.1°F15.6°C 61% 3.6 mph NNW5.8 kmh NNW 27.9 mph44.9 kmh 30.18 in1022.0 mb 0.00 in0.0 mm 0.00 in0.0 mm 0.00 in0.0 mm
07:29 PM 74.3°F23.5°C 59.9°F15.5°C 61% 2.1 mph NNE3.4 kmh NNE 4.0 mph6.4 kmh 30.18 in1022.0 mb 0.00 in0.0 mm 0.00 in0.0 mm 0.00 in0.0 mm
07:35 PM 74.1°F23.4°C 60.1°F15.6°C 62% 3.1 mph NE5.0 kmh NE 3.8 mph6.1 kmh 30.18 in1022.0 mb 0.00 in0.0 mm 0.00 in0.0 mm 0.00 in0.0 mm
07:40 PM 73.2°F22.9°C 61.2°F16.2°C 66% 6.7 mph NNE10.8 kmh NNE 13.1 mph21.1 kmh 30.19 in1022.4 mb 0.00 in0.0 mm 0.00 in0.0 mm 0.00 in0.0 mm
07:46 PM 71.8°F22.1°C 59.7°F15.4°C 66% 6.5 mph NE10.5 kmh NE 15.6 mph25.1 kmh 30.20 in1022.7 mb 0.00 in0.0 mm 0.00 in0.0 mm 0.00 in0.0 mm
07:51 PM 70.9°F21.6°C 59.2°F15.1°C 67% 6.3 mph NNE10.1 kmh NNE 15.6 mph25.1 kmh 30.20 in1022.7 mb 0.00 in0.0 mm 0.00 in0.0 mm 0.00 in0.0 mm
07:56 PM 70.5°F21.4°C 59.4°F15.2°C 68% 5.4 mph NNE8.7 kmh NNE 15.6 mph25.1 kmh 30.20 in1022.7 mb 0.00 in0.0 mm 0.00 in0.0 mm 0.00 in0.0 mm
08:01 PM 70.2°F21.2°C 59.4°F15.2°C 69% 4.0 mph NNE6.4 kmh NNE 15.6 mph25.1 kmh 30.21 in1023.0 mb 0.00 in0.0 mm 0.00 in0.0 mm 0.00 in0.0 mm
08:07 PM 70.0°F21.1°C 59.7°F15.4°C 70% 7.9 mph NNE12.7 kmh NNE 16.3 mph26.2 kmh 30.21 in1023.0 mb 0.00 in0.0 mm 0.00 in0.0 mm 0.00 in0.0 mm
08:12 PM 69.1°F20.6°C 59.9°F15.5°C 73% 5.5 mph N8.9 kmh N 12.7 mph20.4 kmh 30.21 in1023.0 mb 0.00 in0.0 mm 0.00 in0.0 mm 0.00 in0.0 mm
08:17 PM 68.7°F20.4°C 60.1°F15.6°C 74% 4.3 mph NE6.9 kmh NE 17.4 mph28.0 kmh 30.21 in1023.0 mb 0.00 in0.0 mm 0.00 in0.0 mm 0.00 in0.0 mm
08:22 PM 68.4°F20.2°C 60.1°F15.6°C 75% 1.3 mph NE2.1 kmh NE 18.1 mph29.1 kmh 30.21 in1023.0 mb 0.00 in0.0 mm 0.00 in0.0 mm 0.00 in0.0 mm
08:28 PM 68.0°F20.0°C 60.1°F15.6°C 76% 1.5 mph NNE2.4 kmh NNE 18.1 mph29.1 kmh 30.22 in1023.4 mb 0.00 in0.0 mm 0.00 in0.0 mm 0.00 in0.0 mm
08:33 PM 67.6°F19.8°C 59.7°F15.4°C 76% Calm Calm 12.0 mph19.3 kmh 30.22 in1023.4 mb 0.00 in0.0 mm 0.00 in0.0 mm 0.00 in0.0 mm
08:38 PM 67.6°F19.8°C 59.7°F15.4°C 76% 3.1 mph NNW5.0 kmh NNW 3.1 mph5.0 kmh 30.23 in1023.7 mb 0.00 in0.0 mm 0.00 in0.0 mm 0.00 in0.0 mm
08:44 PM 67.6°F19.8°C 59.7°F15.4°C 77% Calm Calm 3.1 mph5.0 kmh 30.23 in1023.7 mb 0.00 in0.0 mm 0.00 in0.0 mm 0.00 in0.0 mm
08:50 PM 67.6°F19.8°C 59.7°F15.4°C 77% 0.6 mph WNW1.0 kmh WNW 0.6 mph1.0 kmh 30.23 in1023.7 mb 0.00 in0.0 mm 0.00 in0.0 mm 0.00 in0.0 mm
08:55 PM 67.6°F19.8°C 59.7°F15.4°C 77% 2.1 mph W3.4 kmh W 2.2 mph3.5 kmh 30.23 in1023.7 mb 0.00 in0.0 mm 0.00 in0.0 mm 0.00 in0.0 mm
09:00 PM 67.6°F19.8°C 59.7°F15.4°C 76% Calm Calm 3.5 mph5.6 kmh 30.23 in1023.7 mb 0.00 in0.0 mm 0.00 in0.0 mm 0.00 in0.0 mm
09:06 PM 67.8°F19.9°C 59.9°F15.5°C 76% Calm Calm 3.5 mph5.6 kmh 30.24 in1024.0 mb 0.00 in0.0 mm 0.00 in0.0 mm 0.00 in0.0 mm
09:11 PM 67.8°F19.9°C 59.9°F15.5°C 76% 1.5 mph W2.4 kmh W 2.6 mph4.2 kmh 30.23 in1023.7 mb 0.00 in0.0 mm 0.00 in0.0 mm 0.00 in0.0 mm
09:16 PM 67.8°F19.9°C 59.9°F15.5°C 76% Calm Calm 2.6 mph4.2 kmh 30.24 in1024.0 mb 0.00 in0.0 mm 0.00 in0.0 mm 0.00 in0.0 mm
09:21 PM 67.8°F19.9°C 59.9°F15.5°C 76% Calm Calm 1.7 mph2.7 kmh 30.24 in1024.0 mb 0.00 in0.0 mm 0.00 in0.0 mm 0.00 in0.0 mm
09:27 PM 68.2°F20.1°C 59.9°F15.5°C 75% 1.1 mph WSW1.8 kmh WSW 1.1 mph1.8 kmh 30.24 in1024.0 mb 0.00 in0.0 mm 0.00 in0.0 mm 0.00 in0.0 mm
09:32 PM 68.4°F20.2°C 60.1°F15.6°C 75% 1.1 mph WSW1.8 kmh WSW 1.1 mph1.8 kmh 30.24 in1024.0 mb 0.00 in0.0 mm 0.00 in0.0 mm 0.00 in0.0 mm
09:37 PM 68.4°F20.2°C 60.1°F15.6°C 75% 3.8 mph WSW6.1 kmh WSW 3.8 mph6.1 kmh 30.24 in1024.0 mb 0.00 in0.0 mm 0.00 in0.0 mm 0.00 in0.0 mm
09:42 PM 68.4°F20.2°C 60.1°F15.6°C 74% Calm Calm 3.8 mph6.1 kmh 30.24 in1024.0 mb 0.00 in0.0 mm 0.00 in0.0 mm 0.00 in0.0 mm
09:48 PM 68.4°F20.2°C 60.1°F15.6°C 74% 2.6 mph WSW4.2 kmh WSW 2.6 mph4.2 kmh 30.24 in1024.0 mb 0.00 in0.0 mm 0.00 in0.0 mm 0.00 in0.0 mm
09:53 PM 68.5°F20.3°C 59.9°F15.5°C 73% 1.3 mph WSW2.1 kmh WSW 2.9 mph4.7 kmh 30.24 in1024.0 mb 0.00 in0.0 mm 0.00 in0.0 mm 0.00 in0.0 mm
09:58 PM 68.7°F20.4°C 59.5°F15.3°C 73% 2.2 mph SW3.5 kmh SW 2.9 mph4.7 kmh 30.24 in1024.0 mb 0.00 in0.0 mm 0.00 in0.0 mm 0.00 in0.0 mm
10:03 PM 68.9°F20.5°C 59.4°F15.2°C 72% 2.4 mph W3.9 kmh W 2.9 mph4.7 kmh 30.24 in1024.0 mb 0.00 in0.0 mm 0.00 in0.0 mm 0.00 in0.0 mm
10:09 PM 69.1°F20.6°C 59.5°F15.3°C 72% 2.2 mph WSW3.5 kmh WSW 2.4 mph3.9 kmh 30.24 in1024.0 mb 0.00 in0.0 mm 0.00 in0.0 mm 0.00 in0.0 mm
10:14 PM 69.1°F20.6°C 59.5°F15.3°C 72% 3.3 mph WSW5.3 kmh WSW 3.3 mph5.3 kmh 30.24 in1024.0 mb 0.00 in0.0 mm 0.00 in0.0 mm 0.00 in0.0 mm
10:19 PM 68.9°F20.5°C 59.4°F15.2°C 72% 2.9 mph W4.7 kmh W 3.3 mph5.3 kmh 30.24 in1024.0 mb 0.00 in0.0 mm 0.00 in0.0 mm 0.00 in0.0 mm
10:24 PM 68.7°F20.4°C 59.2°F15.1°C 73% 2.6 mph WSW4.2 kmh WSW 2.9 mph4.7 kmh 30.24 in1024.0 mb 0.00 in0.0 mm 0.00 in0.0 mm 0.00 in0.0 mm
10:29 PM 68.7°F20.4°C 59.5°F15.3°C 73% 3.6 mph W5.8 kmh W 3.8 mph6.1 kmh 30.24 in1024.0 mb 0.00 in0.0 mm 0.00 in0.0 mm 0.00 in0.0 mm
10:35 PM 68.7°F20.4°C 59.5°F15.3°C 73% 2.6 mph WSW4.2 kmh WSW 3.8 mph6.1 kmh 30.24 in1024.0 mb 0.00 in0.0 mm 0.00 in0.0 mm 0.00 in0.0 mm
10:40 PM 68.9°F20.5°C 59.7°F15.4°C 73% 2.9 mph W4.7 kmh W 19.6 mph31.5 kmh 30.24 in1024.0 mb 0.00 in0.0 mm 0.00 in0.0 mm 0.00 in0.0 mm
10:45 PM 68.7°F20.4°C 59.5°F15.3°C 73% 2.2 mph WNW3.5 kmh WNW 19.6 mph31.5 kmh 30.24 in1024.0 mb 0.00 in0.0 mm 0.00 in0.0 mm 0.00 in0.0 mm
10:50 PM 68.7°F20.4°C 59.5°F15.3°C 73% 2.0 mph WNW3.2 kmh WNW 3.3 mph5.3 kmh 30.24 in1024.0 mb 0.00 in0.0 mm 0.00 in0.0 mm 0.00 in0.0 mm
10:56 PM 68.5°F20.3°C 59.5°F15.3°C 73% 4.9 mph NW7.9 kmh NW 4.9 mph7.9 kmh 30.24 in1024.0 mb 0.00 in0.0 mm 0.00 in0.0 mm 0.00 in0.0 mm
11:01 PM 68.4°F20.2°C 59.7°F15.4°C 74% 3.8 mph W6.1 kmh W 4.9 mph7.9 kmh 30.24 in1024.0 mb 0.00 in0.0 mm 0.00 in0.0 mm 0.00 in0.0 mm
11:06 PM 68.4°F20.2°C 59.7°F15.4°C 74% 1.7 mph W2.7 kmh W 4.9 mph7.9 kmh 30.24 in1024.0 mb 0.00 in0.0 mm 0.00 in0.0 mm 0.00 in0.0 mm
11:11 PM 68.0°F20.0°C 59.4°F15.2°C 74% 0.6 mph W1.0 kmh W 3.8 mph6.1 kmh 30.24 in1024.0 mb 0.00 in0.0 mm 0.00 in0.0 mm 0.00 in0.0 mm
11:17 PM 67.8°F19.9°C 59.5°F15.3°C 75% Calm Calm 1.7 mph2.7 kmh 30.24 in1024.0 mb 0.00 in0.0 mm 0.00 in0.0 mm 0.00 in0.0 mm
11:22 PM 67.6°F19.8°C 59.4°F15.2°C 75% Calm Calm 0.6 mph1.0 kmh 30.24 in1024.0 mb 0.00 in0.0 mm 0.00 in0.0 mm 0.00 in0.0 mm
11:28 PM 67.6°F19.8°C 59.4°F15.2°C 74% 1.7 mph W2.7 kmh W 1.7 mph2.7 kmh 30.24 in1024.0 mb 0.00 in0.0 mm 0.00 in0.0 mm 0.00 in0.0 mm
11:33 PM 67.6°F19.8°C 59.4°F15.2°C 74% Calm Calm 1.7 mph2.7 kmh 30.24 in1024.0 mb 0.00 in0.0 mm 0.00 in0.0 mm 0.00 in0.0 mm
11:38 PM 67.5°F19.7°C 59.2°F15.1°C 75% 1.3 mph W2.1 kmh W 1.7 mph2.7 kmh 30.23 in1023.7 mb 0.00 in0.0 mm 0.00 in0.0 mm 0.00 in0.0 mm
11:43 PM 67.3°F19.6°C 59.0°F15.0°C 75% Calm Calm 1.3 mph2.1 kmh 30.23 in1023.7 mb 0.00 in0.0 mm 0.00 in0.0 mm 0.00 in0.0 mm
11:49 PM 66.9°F19.4°C 58.6°F14.8°C 75% Calm Calm 1.3 mph2.1 kmh 30.24 in1024.0 mb 0.00 in0.0 mm 0.00 in0.0 mm 0.00 in0.0 mm
11:54 PM 66.7°F19.3°C 58.8°F14.9°C 76% Calm Calm -- 30.23 in1023.7 mb 0.00 in0.0 mm 0.00 in0.0 mm 0.00 in0.0 mm
11:59 PM 66.7°F19.3°C 58.8°F14.9°C 76% Calm Calm -- 30.23 in1023.7 mb 0.00 in0.0 mm 0.00 in0.0 mm 0.00 in0.0 mm